createdAt,value
2022-08-21T00:00:20.316Z,21.70
2022-08-21T00:02:51.509Z,21.70
2022-08-21T00:05:19.243Z,21.70
2022-08-21T00:07:46.307Z,21.60
2022-08-21T00:10:13.879Z,21.60
2022-08-21T00:12:41.527Z,21.60
2022-08-21T00:15:10.507Z,21.60
2022-08-21T00:17:38.825Z,21.50
2022-08-21T00:20:09.696Z,21.50
2022-08-21T00:22:37.711Z,21.50
2022-08-21T00:25:07.450Z,21.50
2022-08-21T00:27:34.942Z,21.50
2022-08-21T00:30:02.286Z,21.50
2022-08-21T00:32:29.468Z,21.40
2022-08-21T00:34:56.554Z,21.40
2022-08-21T00:37:24.176Z,21.40
2022-08-21T00:39:51.142Z,21.40
2022-08-21T00:42:18.613Z,21.30
2022-08-21T00:44:47.622Z,21.30
2022-08-21T00:47:14.615Z,21.30
2022-08-21T00:49:41.937Z,21.30
2022-08-21T00:52:16.161Z,21.30
2022-08-21T00:54:44.155Z,21.30
2022-08-21T00:57:28.859Z,21.30
2022-08-21T00:59:59.315Z,21.20
2022-08-21T01:02:26.825Z,21.20
2022-08-21T01:04:54.611Z,21.20
2022-08-21T01:07:21.589Z,21.20
2022-08-21T01:09:49.849Z,21.20
2022-08-21T01:12:16.899Z,21.20
2022-08-21T01:14:44.765Z,21.20
2022-08-21T01:17:13.847Z,21.10
2022-08-21T01:19:40.831Z,21.20
2022-08-21T01:22:08.345Z,21.20
2022-08-21T01:24:35.388Z,21.10
2022-08-21T01:27:02.825Z,21.10
2022-08-21T01:29:55.495Z,21.10
2022-08-21T01:32:22.490Z,21.10
2022-08-21T01:34:51.527Z,21.00
2022-08-21T01:37:20.179Z,21.00
2022-08-21T01:39:47.590Z,21.00
2022-08-21T01:42:14.767Z,20.90
2022-08-21T01:44:42.415Z,20.90
2022-08-21T01:47:12.811Z,20.80
2022-08-21T01:49:40.801Z,20.80
2022-08-21T01:52:09.493Z,20.70
2022-08-21T01:54:37.317Z,20.70
2022-08-21T01:57:04.948Z,20.80
2022-08-21T01:59:32.565Z,20.80
2022-08-21T02:01:59.489Z,20.80
2022-08-21T02:04:26.432Z,20.80
2022-08-21T02:06:53.471Z,20.80
2022-08-21T02:09:22.363Z,20.80
2022-08-21T02:11:49.400Z,20.70
2022-08-21T02:14:32.103Z,20.70
2022-08-21T02:17:03.358Z,20.70
2022-08-21T02:19:39.429Z,20.70
2022-08-21T02:22:10.171Z,20.70
2022-08-21T02:24:53.955Z,20.70
2022-08-21T02:27:26.163Z,20.70
2022-08-21T02:29:54.763Z,20.70
2022-08-21T02:32:22.423Z,20.60
2022-08-21T02:34:49.916Z,20.60
2022-08-21T02:37:16.830Z,20.60
2022-08-21T02:39:43.769Z,20.50
2022-08-21T02:42:10.605Z,20.50
2022-08-21T02:44:37.453Z,20.50
2022-08-21T02:47:04.397Z,20.50
2022-08-21T02:49:31.277Z,20.50
2022-08-21T02:51:58.174Z,20.40
2022-08-21T02:54:25.325Z,20.40
2022-08-21T02:56:52.453Z,20.40
2022-08-21T02:59:19.401Z,20.40
2022-08-21T03:01:46.233Z,20.40
2022-08-21T03:04:13.142Z,20.30
2022-08-21T03:06:39.994Z,20.30
2022-08-21T03:09:06.937Z,20.30
2022-08-21T03:11:33.885Z,20.30
2022-08-21T03:14:00.803Z,20.30
2022-08-21T03:16:29.258Z,20.20
2022-08-21T03:18:58.920Z,20.20
2022-08-21T03:21:25.773Z,20.10
2022-08-21T03:23:52.679Z,20.10
2022-08-21T03:26:19.831Z,20.10
2022-08-21T03:28:46.829Z,20.20
2022-08-21T03:31:13.676Z,20.20
2022-08-21T03:33:40.513Z,20.20
2022-08-21T03:36:09.074Z,20.20
2022-08-21T03:38:36.750Z,20.20
2022-08-21T03:41:05.101Z,20.20
2022-08-21T03:43:33.065Z,20.20
2022-08-21T03:46:03.082Z,20.20
2022-08-21T03:48:30.359Z,20.10
2022-08-21T03:50:57.613Z,20.20
2022-08-21T03:53:25.488Z,20.20
2022-08-21T03:55:53.614Z,20.20
2022-08-21T03:58:24.398Z,20.20
2022-08-21T04:00:55.049Z,20.10
2022-08-21T04:03:22.082Z,20.10
2022-08-21T04:05:49.244Z,20.10
2022-08-21T04:08:19.581Z,20.10
2022-08-21T04:10:49.562Z,20.10
2022-08-21T04:13:16.864Z,20.00
2022-08-21T04:15:43.918Z,20.00
2022-08-21T04:18:11.414Z,20.00
2022-08-21T04:20:38.993Z,20.00
2022-08-21T04:23:07.229Z,20.00
2022-08-21T04:25:34.122Z,19.90
2022-08-21T04:28:01.012Z,19.90
2022-08-21T04:30:28.526Z,19.90
2022-08-21T04:32:57.820Z,19.90
2022-08-21T04:35:27.005Z,19.80
2022-08-21T04:37:54.149Z,19.80
2022-08-21T04:40:22.440Z,19.80
2022-08-21T04:42:51.818Z,19.70
2022-08-21T04:45:46.054Z,19.80
2022-08-21T04:48:15.147Z,19.80
2022-08-21T04:51:01.019Z,19.80
2022-08-21T04:54:00.043Z,19.80
2022-08-21T04:56:32.297Z,19.80
2022-08-21T04:59:04.016Z,19.70
2022-08-21T05:01:35.524Z,19.70
2022-08-21T05:04:05.501Z,19.70
2022-08-21T05:06:36.389Z,19.70
2022-08-21T05:09:04.519Z,19.70
2022-08-21T05:11:33.352Z,19.70
2022-08-21T05:14:00.561Z,19.70
2022-08-21T05:16:37.200Z,19.70
2022-08-21T05:19:06.411Z,19.70
2022-08-21T05:21:34.520Z,19.70
2022-08-21T05:24:01.444Z,19.70
2022-08-21T05:26:28.374Z,19.80
2022-08-21T05:28:55.163Z,19.80
2022-08-21T05:31:24.284Z,19.80
2022-08-21T05:33:52.009Z,19.70
2022-08-21T05:36:19.711Z,19.70
2022-08-21T05:38:46.663Z,19.70
2022-08-21T05:41:13.805Z,19.70
2022-08-21T05:43:40.851Z,19.70
2022-08-21T05:46:08.661Z,19.80
2022-08-21T05:48:37.206Z,19.80
2022-08-21T05:51:14.014Z,19.90
2022-08-21T05:53:43.161Z,19.90
2022-08-21T05:56:10.572Z,20.00
2022-08-21T05:58:37.690Z,20.00
2022-08-21T06:01:04.992Z,20.10
2022-08-21T06:03:36.681Z,20.20
2022-08-21T06:06:04.118Z,20.30
2022-08-21T06:08:31.285Z,20.40
2022-08-21T06:11:00.336Z,20.70
2022-08-21T06:13:28.471Z,21.10
2022-08-21T06:16:07.331Z,21.70
2022-08-21T06:18:35.694Z,22.40
2022-08-21T06:21:02.686Z,23.10
2022-08-21T06:23:32.855Z,23.80
2022-08-21T06:26:01.724Z,24.40
2022-08-21T06:28:28.740Z,24.90
2022-08-21T06:30:55.790Z,25.50
2022-08-21T06:33:23.056Z,26.10
2022-08-21T06:35:50.132Z,26.60
2022-08-21T06:38:17.518Z,27.00
2022-08-21T06:40:46.938Z,27.40
2022-08-21T06:43:17.374Z,27.80
2022-08-21T06:45:45.196Z,28.10
2022-08-21T06:48:16.890Z,28.30
2022-08-21T06:50:46.256Z,28.50
2022-08-21T06:53:15.771Z,28.70
2022-08-21T06:55:43.287Z,28.90
2022-08-21T06:58:11.194Z,29.10
2022-08-21T07:00:44.019Z,29.30
2022-08-21T07:03:23.330Z,29.40
2022-08-21T07:05:51.043Z,29.40
2022-08-21T07:08:18.600Z,29.40
2022-08-21T07:10:46.292Z,29.40
2022-08-21T07:13:13.683Z,29.30
2022-08-21T07:15:41.126Z,29.30
2022-08-21T07:18:08.402Z,29.20
2022-08-21T07:20:35.515Z,29.20
2022-08-21T07:23:07.016Z,29.20
2022-08-21T07:25:34.316Z,29.30
2022-08-21T07:28:01.631Z,29.30
2022-08-21T07:30:29.222Z,29.40
2022-08-21T07:32:56.416Z,29.40
2022-08-21T07:35:23.753Z,29.50
2022-08-21T07:37:50.840Z,29.50
2022-08-21T07:40:18.426Z,29.40
2022-08-21T07:42:48.244Z,29.30
2022-08-21T07:45:15.407Z,29.30
2022-08-21T07:47:43.149Z,29.30
2022-08-21T07:50:12.593Z,29.40
2022-08-21T07:52:41.200Z,29.50
2022-08-21T07:55:10.961Z,29.70
2022-08-21T07:57:38.420Z,29.90
2022-08-21T08:00:09.959Z,30.00
2022-08-21T08:02:40.801Z,30.10
2022-08-21T08:05:10.786Z,30.20
2022-08-21T08:07:38.151Z,30.30
2022-08-21T08:10:08.101Z,30.50
2022-08-21T08:12:36.661Z,30.70
2022-08-21T08:15:05.167Z,30.80
2022-08-21T08:17:33.281Z,31.00
2022-08-21T08:20:01.904Z,31.20
2022-08-21T08:22:28.892Z,31.30
2022-08-21T08:24:56.697Z,31.50
2022-08-21T08:27:24.051Z,31.60
2022-08-21T08:29:51.946Z,31.80
2022-08-21T08:32:19.623Z,32.00
2022-08-21T08:34:48.080Z,32.30
2022-08-21T08:37:16.004Z,32.50
2022-08-21T08:39:43.469Z,32.70
2022-08-21T08:42:33.025Z,33.00
2022-08-21T08:45:12.477Z,33.20
2022-08-21T08:47:43.546Z,33.30
2022-08-21T08:50:22.512Z,33.50
2022-08-21T08:53:05.798Z,33.70
2022-08-21T08:55:41.530Z,33.80
2022-08-21T08:58:16.109Z,33.80
2022-08-21T09:00:43.150Z,33.80
2022-08-21T09:03:10.181Z,33.80
2022-08-21T09:05:47.761Z,33.80
2022-08-21T09:08:18.723Z,33.60
2022-08-21T09:10:54.589Z,33.30
2022-08-21T09:13:39.623Z,33.20
2022-08-21T09:16:32.999Z,33.10
2022-08-21T09:19:26.174Z,33.10
2022-08-21T09:22:14.711Z,33.00
2022-08-21T09:24:51.388Z,32.90
2022-08-21T09:27:20.614Z,32.70
2022-08-21T09:29:51.938Z,32.50
2022-08-21T09:32:36.843Z,32.20
2022-08-21T09:35:11.198Z,31.90
2022-08-21T09:37:47.145Z,31.70
2022-08-21T09:40:52.787Z,31.70
2022-08-21T09:43:22.806Z,31.70
2022-08-21T09:46:01.840Z,31.80
2022-08-21T09:48:33.016Z,31.90
2022-08-21T09:51:16.219Z,32.20
2022-08-21T09:53:57.649Z,32.30
2022-08-21T09:56:56.317Z,32.30
2022-08-21T09:59:43.860Z,32.00
2022-08-21T10:02:28.988Z,31.80
2022-08-21T10:05:04.541Z,31.60
2022-08-21T10:07:33.223Z,31.40
2022-08-21T10:10:19.089Z,31.40
2022-08-21T10:12:58.048Z,31.50
2022-08-21T10:16:02.035Z,31.70
2022-08-21T10:18:41.130Z,31.90
2022-08-21T10:21:23.648Z,32.30
2022-08-21T10:24:05.967Z,32.70
2022-08-21T10:26:50.058Z,33.00
2022-08-21T10:29:54.401Z,33.10
2022-08-21T10:32:54.576Z,33.30
2022-08-21T10:35:31.335Z,33.30
2022-08-21T10:38:50.382Z,33.30
2022-08-21T10:41:52.301Z,33.50
2022-08-21T10:44:35.813Z,33.50
2022-08-21T10:47:22.605Z,33.30
2022-08-21T10:50:07.977Z,33.00
2022-08-21T10:52:44.147Z,32.70
2022-08-21T10:55:19.090Z,32.60
2022-08-21T10:57:52.122Z,32.50
2022-08-21T11:00:22.922Z,32.60
2022-08-21T11:03:06.243Z,32.70
2022-08-21T11:05:39.961Z,32.60
2022-08-21T11:08:22.520Z,32.50
2022-08-21T11:11:00.809Z,32.40
2022-08-21T11:13:55.028Z,32.50
2022-08-21T11:16:43.427Z,32.50
2022-08-21T11:19:37.731Z,32.50
2022-08-21T11:22:16.376Z,32.50
2022-08-21T11:24:54.044Z,32.60
2022-08-21T11:27:39.709Z,32.80
2022-08-21T11:30:08.283Z,32.90
2022-08-21T11:32:44.111Z,32.90
2022-08-21T11:35:19.636Z,32.90
2022-08-21T11:37:58.417Z,32.80
2022-08-21T11:40:37.211Z,32.60
2022-08-21T11:43:46.836Z,32.50
2022-08-21T11:46:51.377Z,32.70
2022-08-21T11:49:24.251Z,32.80
2022-08-21T11:52:10.261Z,32.80
2022-08-21T11:54:44.508Z,32.70
2022-08-21T11:57:20.466Z,32.70
2022-08-21T11:59:56.836Z,32.80
2022-08-21T12:02:29.938Z,32.90
2022-08-21T12:05:08.460Z,33.00
2022-08-21T12:07:45.252Z,33.00
2022-08-21T12:10:16.787Z,32.90
2022-08-21T12:12:45.728Z,32.80
2022-08-21T12:15:21.474Z,32.70
2022-08-21T12:18:03.165Z,32.70
2022-08-21T12:20:36.045Z,32.70
2022-08-21T12:23:25.156Z,32.80
2022-08-21T12:26:10.815Z,32.90
2022-08-21T12:28:38.363Z,33.10
2022-08-21T12:31:05.376Z,33.20
2022-08-21T12:33:37.145Z,33.30
2022-08-21T12:36:15.710Z,33.50
2022-08-21T12:39:02.056Z,33.70
2022-08-21T12:41:34.420Z,33.80
2022-08-21T12:44:25.086Z,33.80
2022-08-21T12:47:02.634Z,33.70
2022-08-21T12:49:37.512Z,33.70
2022-08-21T12:52:21.068Z,33.60
2022-08-21T12:54:48.234Z,33.40
2022-08-21T12:57:28.677Z,33.20
2022-08-21T13:00:15.106Z,32.90
2022-08-21T13:02:50.825Z,32.70
2022-08-21T13:05:29.381Z,32.50
2022-08-21T13:07:57.435Z,32.40
2022-08-21T13:10:28.744Z,32.30
2022-08-21T13:13:01.527Z,32.30
2022-08-21T13:15:41.470Z,32.20
2022-08-21T13:18:26.274Z,32.10
2022-08-21T13:21:03.100Z,32.00
2022-08-21T13:23:31.213Z,31.80
2022-08-21T13:25:58.761Z,31.70
2022-08-21T13:28:35.049Z,31.60
2022-08-21T13:31:02.670Z,31.50
2022-08-21T13:33:37.424Z,31.40
2022-08-21T13:36:10.710Z,31.30
2022-08-21T13:38:40.771Z,31.20
2022-08-21T13:41:16.963Z,31.10
2022-08-21T13:44:27.339Z,31.00
2022-08-21T13:46:55.576Z,30.90
2022-08-21T13:49:38.190Z,30.80
2022-08-21T13:52:07.597Z,30.70
2022-08-21T13:54:37.965Z,30.60
2022-08-21T13:57:16.213Z,30.50
2022-08-21T13:59:43.199Z,30.40
2022-08-21T14:02:23.238Z,30.20
2022-08-21T14:04:55.680Z,30.20
2022-08-21T14:07:30.737Z,30.10
2022-08-21T14:10:01.163Z,30.10
2022-08-21T14:12:39.147Z,30.00
2022-08-21T14:15:07.144Z,29.90
2022-08-21T14:17:37.718Z,29.80
2022-08-21T14:20:11.688Z,29.70
2022-08-21T14:22:49.559Z,29.60
2022-08-21T14:25:31.815Z,29.50
2022-08-21T14:28:19.722Z,29.50
2022-08-21T14:30:47.654Z,29.50
2022-08-21T14:33:30.180Z,29.50
2022-08-21T14:35:57.733Z,29.40
2022-08-21T14:38:27.361Z,29.30
2022-08-21T14:41:17.127Z,29.30
2022-08-21T14:43:46.366Z,29.20
2022-08-21T14:46:19.302Z,29.20
2022-08-21T14:48:47.724Z,29.10
2022-08-21T14:51:14.918Z,29.10
2022-08-21T14:53:42.124Z,29.10
2022-08-21T14:56:09.199Z,29.10
2022-08-21T14:58:39.856Z,29.10
2022-08-21T15:01:09.294Z,29.10
2022-08-21T15:03:37.294Z,29.10
2022-08-21T15:06:05.454Z,29.10
2022-08-21T15:08:33.381Z,29.00
2022-08-21T15:11:12.507Z,29.00
2022-08-21T15:13:40.737Z,29.00
2022-08-21T15:16:10.320Z,28.90
2022-08-21T15:18:37.348Z,28.90
2022-08-21T15:21:04.301Z,28.80
2022-08-21T15:23:31.134Z,28.80
2022-08-21T15:25:59.819Z,28.90
2022-08-21T15:28:28.525Z,28.90
2022-08-21T15:31:00.613Z,28.80
2022-08-21T15:33:27.938Z,28.80
2022-08-21T15:35:54.845Z,28.80
2022-08-21T15:38:21.790Z,28.80
2022-08-21T15:40:52.021Z,28.80
2022-08-21T15:43:34.367Z,28.80
2022-08-21T15:46:02.394Z,28.80
2022-08-21T15:48:29.923Z,28.90
2022-08-21T15:50:56.832Z,28.90
2022-08-21T15:53:24.104Z,28.90
2022-08-21T15:55:51.043Z,28.90
2022-08-21T15:58:20.820Z,29.00
2022-08-21T16:00:48.029Z,29.00
2022-08-21T16:03:17.799Z,29.00
2022-08-21T16:05:45.966Z,29.00
2022-08-21T16:08:13.165Z,29.00
2022-08-21T16:10:40.671Z,29.00
2022-08-21T16:13:29.326Z,29.00
2022-08-21T16:15:56.430Z,29.00
2022-08-21T16:18:24.040Z,29.00
2022-08-21T16:20:51.076Z,28.90
2022-08-21T16:23:18.227Z,28.90
2022-08-21T16:25:46.146Z,28.80
2022-08-21T16:28:16.597Z,28.80
2022-08-21T16:30:48.051Z,28.80
2022-08-21T16:33:35.543Z,28.70
2022-08-21T16:36:05.305Z,28.70
2022-08-21T16:38:36.910Z,28.70
2022-08-21T16:41:12.160Z,28.60
2022-08-21T16:43:41.632Z,28.60
2022-08-21T16:46:11.621Z,28.60
2022-08-21T16:48:39.331Z,28.60
2022-08-21T16:51:06.431Z,28.50
2022-08-21T16:53:36.744Z,28.50
2022-08-21T16:56:05.024Z,28.50
2022-08-21T16:58:35.122Z,28.40
2022-08-21T17:01:06.319Z,28.40
2022-08-21T17:03:40.306Z,28.40
2022-08-21T17:06:09.054Z,28.30
2022-08-21T17:08:36.342Z,28.30
2022-08-21T17:11:05.396Z,28.30
2022-08-21T17:13:32.657Z,28.30
2022-08-21T17:15:59.890Z,28.20
2022-08-21T17:18:27.906Z,28.10
2022-08-21T17:20:55.195Z,28.10
2022-08-21T17:23:22.242Z,28.10
2022-08-21T17:25:52.816Z,28.00
2022-08-21T17:28:23.899Z,28.00
2022-08-21T17:30:54.257Z,28.00
2022-08-21T17:33:23.068Z,28.00
2022-08-21T17:35:50.225Z,27.90
2022-08-21T17:38:17.169Z,27.90
2022-08-21T17:40:44.760Z,27.90
2022-08-21T17:43:15.074Z,27.80
2022-08-21T17:45:43.606Z,27.80
2022-08-21T17:48:10.614Z,27.80
2022-08-21T17:50:37.731Z,27.70
2022-08-21T17:53:04.855Z,27.70
2022-08-21T17:55:33.006Z,27.60
2022-08-21T17:58:02.231Z,27.70
2022-08-21T18:00:29.702Z,27.60
2022-08-21T18:03:02.701Z,27.50
2022-08-21T18:05:30.053Z,27.50
2022-08-21T18:07:57.939Z,27.50
2022-08-21T18:10:28.135Z,27.50
2022-08-21T18:12:55.481Z,27.40
2022-08-21T18:15:22.719Z,27.40
2022-08-21T18:17:51.398Z,27.30
2022-08-21T18:20:21.467Z,27.30
2022-08-21T18:22:48.747Z,27.30
2022-08-21T18:25:15.861Z,27.20
2022-08-21T18:27:45.847Z,27.20
2022-08-21T18:30:16.582Z,27.20
2022-08-21T18:32:44.206Z,27.10
2022-08-21T18:35:12.883Z,27.10
2022-08-21T18:37:39.975Z,27.00
2022-08-21T18:40:09.649Z,27.00
2022-08-21T18:42:43.399Z,26.90
2022-08-21T18:45:22.422Z,26.90
2022-08-21T18:47:52.127Z,26.80
2022-08-21T18:50:21.643Z,26.80
2022-08-21T18:52:53.627Z,26.70
2022-08-21T18:55:21.522Z,26.60
2022-08-21T18:57:48.550Z,26.60
2022-08-21T19:00:23.396Z,26.60
2022-08-21T19:02:52.117Z,26.50
2022-08-21T19:05:21.087Z,26.50
2022-08-21T19:07:50.526Z,26.40
2022-08-21T19:10:27.739Z,26.40
2022-08-21T19:12:59.366Z,26.30
2022-08-21T19:15:27.033Z,26.30
2022-08-21T19:17:56.322Z,26.20
2022-08-21T19:20:36.599Z,26.20
2022-08-21T19:23:07.956Z,26.10
2022-08-21T19:25:36.920Z,26.10
2022-08-21T19:28:11.308Z,26.10
2022-08-21T19:30:41.039Z,26.10
2022-08-21T19:33:08.312Z,26.10
2022-08-21T19:35:35.273Z,26.00
2022-08-21T19:38:02.346Z,26.00
2022-08-21T19:40:31.993Z,26.00
2022-08-21T19:42:59.089Z,25.90
2022-08-21T19:45:28.753Z,25.90
2022-08-21T19:47:56.093Z,25.80
2022-08-21T19:50:26.039Z,25.80
2022-08-21T19:52:52.928Z,25.70
2022-08-21T19:55:20.463Z,25.70
2022-08-21T19:57:51.340Z,25.60
2022-08-21T20:00:18.240Z,25.60
2022-08-21T20:05:39.491Z,25.60
2022-08-21T20:10:58.144Z,25.50
2022-08-21T20:13:25.766Z,25.40
2022-08-21T20:15:53.750Z,25.40
2022-08-21T20:18:26.730Z,25.40
2022-08-21T20:20:54.682Z,25.40
2022-08-21T20:26:08.420Z,25.30
2022-08-21T20:28:37.075Z,25.20
2022-08-21T20:31:09.473Z,25.20
2022-08-21T20:33:37.618Z,25.20
2022-08-21T20:36:04.841Z,25.10
2022-08-21T20:38:31.810Z,25.10
2022-08-21T20:40:59.332Z,25.10
2022-08-21T20:43:28.019Z,25.00
2022-08-21T20:45:55.334Z,25.00
2022-08-21T20:48:49.439Z,25.00
2022-08-21T20:51:35.796Z,25.00
2022-08-21T20:54:13.304Z,24.90
2022-08-21T20:57:13.839Z,24.90
2022-08-21T20:59:55.518Z,24.90
2022-08-21T21:03:04.225Z,24.90
2022-08-21T21:05:48.514Z,24.80
2022-08-21T21:08:30.584Z,24.80
2022-08-21T21:11:16.723Z,24.80
2022-08-21T21:13:49.795Z,24.80
2022-08-21T21:16:39.114Z,24.80
2022-08-21T21:19:37.307Z,24.80
2022-08-21T21:22:16.147Z,24.80
2022-08-21T21:25:05.044Z,24.70
2022-08-21T21:27:37.557Z,24.70
2022-08-21T21:30:12.095Z,24.70
2022-08-21T21:32:41.669Z,24.60
2022-08-21T21:35:12.347Z,24.60
2022-08-21T21:37:47.180Z,24.60
2022-08-21T21:40:31.967Z,24.50
2022-08-21T21:43:16.012Z,24.60
2022-08-21T21:46:03.294Z,24.50
2022-08-21T21:48:40.766Z,24.50
2022-08-21T21:51:40.335Z,24.50
2022-08-21T21:54:23.963Z,24.50
2022-08-21T21:57:09.319Z,24.50
2022-08-21T21:59:55.928Z,24.50
2022-08-21T22:03:13.839Z,24.50
2022-08-21T22:05:52.379Z,24.50
2022-08-21T22:08:30.177Z,24.40
2022-08-21T22:11:08.951Z,24.40
2022-08-21T22:16:55.748Z,24.40
2022-08-21T22:19:33.765Z,24.40
2022-08-21T22:22:20.163Z,24.40
2022-08-21T22:24:52.412Z,24.40
2022-08-21T22:27:27.513Z,24.40
2022-08-21T22:29:57.469Z,24.40
2022-08-21T22:32:24.453Z,24.40
2022-08-21T22:35:04.024Z,24.40
2022-08-21T22:37:37.217Z,24.30
2022-08-21T22:40:05.610Z,24.30
2022-08-21T22:42:32.787Z,24.30
2022-08-21T22:45:02.893Z,24.30
2022-08-21T22:47:34.845Z,24.30
2022-08-21T22:50:05.494Z,24.30
2022-08-21T22:52:36.781Z,24.30
2022-08-21T22:55:48.607Z,24.30
2022-08-21T22:58:26.365Z,24.30
2022-08-21T23:01:07.476Z,24.20
2022-08-21T23:03:47.375Z,24.10
2022-08-21T23:06:46.377Z,24.00
2022-08-21T23:09:33.610Z,24.00
2022-08-21T23:12:21.116Z,24.00
2022-08-21T23:14:54.563Z,24.00
2022-08-21T23:17:35.810Z,24.00
2022-08-21T23:20:17.135Z,24.00
2022-08-21T23:23:05.485Z,24.00
2022-08-21T23:25:45.331Z,24.00
2022-08-21T23:28:36.642Z,23.90
2022-08-21T23:31:27.871Z,23.90
2022-08-21T23:34:01.190Z,23.90
2022-08-21T23:37:10.362Z,23.90
2022-08-21T23:39:51.584Z,23.80
2022-08-21T23:42:31.099Z,23.80
2022-08-21T23:45:32.867Z,23.80
2022-08-21T23:48:12.091Z,23.80
2022-08-21T23:51:11.118Z,23.80
2022-08-21T23:54:08.199Z,23.80
2022-08-21T23:57:11.986Z,23.80
